createdAt,value
2023-05-13T00:00:37.612Z,28.41
2023-05-13T00:03:08.460Z,28.40
2023-05-13T00:05:39.724Z,28.38
2023-05-13T00:08:09.820Z,28.36
2023-05-13T00:10:39.716Z,28.36
2023-05-13T00:13:11.942Z,28.33
2023-05-13T00:15:43.573Z,28.33
2023-05-13T00:18:14.136Z,28.32
2023-05-13T00:20:44.092Z,28.32
2023-05-13T00:23:14.996Z,28.32
2023-05-13T00:25:46.497Z,28.31
2023-05-13T00:28:18.805Z,28.31
2023-05-13T00:30:50.315Z,28.31
2023-05-13T00:33:21.075Z,28.32
2023-05-13T00:35:51.484Z,28.32
2023-05-13T00:38:21.622Z,28.32
2023-05-13T00:40:52.587Z,28.33
2023-05-13T00:43:25.328Z,28.34
2023-05-13T00:45:55.785Z,28.34
2023-05-13T00:48:27.270Z,28.34
2023-05-13T00:50:58.423Z,28.34
2023-05-13T00:53:28.525Z,28.34
2023-05-13T00:55:59.090Z,28.34
2023-05-13T00:58:31.870Z,28.35
2023-05-13T01:01:13.960Z,28.35
2023-05-13T01:03:56.268Z,28.34
2023-05-13T01:06:43.153Z,28.32
2023-05-13T01:09:29.619Z,28.32
2023-05-13T01:12:11.056Z,28.31
2023-05-13T01:14:51.555Z,28.29
2023-05-13T01:17:34.777Z,28.28
2023-05-13T01:20:06.959Z,28.28
2023-05-13T01:22:38.829Z,28.28
2023-05-13T01:25:10.445Z,28.28
2023-05-13T01:27:40.952Z,28.27
2023-05-13T01:30:13.722Z,28.25
2023-05-13T01:32:44.134Z,28.25
2023-05-13T01:35:16.339Z,28.26
2023-05-13T01:37:50.657Z,28.26
2023-05-13T01:40:31.693Z,28.27
2023-05-13T01:43:03.790Z,28.26
2023-05-13T01:45:35.314Z,28.27
2023-05-13T01:48:05.476Z,28.27
2023-05-13T01:50:36.358Z,28.27
2023-05-13T01:53:10.716Z,28.26
2023-05-13T01:55:41.493Z,28.26
2023-05-13T01:58:12.002Z,28.27
2023-05-13T02:00:42.017Z,28.27
2023-05-13T02:03:12.803Z,28.26
2023-05-13T02:05:43.185Z,28.26
2023-05-13T02:08:15.758Z,28.26
2023-05-13T02:10:45.983Z,28.26
2023-05-13T02:13:16.759Z,28.25
2023-05-13T02:15:47.375Z,28.23
2023-05-13T02:18:17.454Z,28.23
2023-05-13T02:20:48.211Z,28.22
2023-05-13T02:23:20.369Z,28.20
2023-05-13T02:25:50.835Z,28.18
2023-05-13T02:28:21.401Z,28.17
2023-05-13T02:30:51.851Z,28.17
2023-05-13T02:33:22.804Z,28.15
2023-05-13T02:35:53.419Z,28.14
2023-05-13T02:38:25.915Z,28.14
2023-05-13T02:40:56.323Z,28.13
2023-05-13T02:43:27.958Z,28.12
2023-05-13T02:45:57.915Z,28.11
2023-05-13T02:48:28.535Z,28.10
2023-05-13T02:50:59.000Z,28.11
2023-05-13T02:53:31.312Z,28.10
2023-05-13T02:56:01.829Z,28.09
2023-05-13T02:58:32.105Z,28.10
2023-05-13T03:01:02.723Z,28.08
2023-05-13T03:03:33.503Z,28.07
2023-05-13T03:06:03.682Z,28.05
2023-05-13T03:08:35.633Z,28.03
2023-05-13T03:11:06.211Z,28.02
2023-05-13T03:13:36.786Z,28.00
2023-05-13T03:16:07.780Z,28.00
2023-05-13T03:18:38.414Z,27.98
2023-05-13T03:21:09.140Z,27.97
2023-05-13T03:23:41.486Z,27.97
2023-05-13T03:26:12.094Z,27.97
2023-05-13T03:28:42.163Z,27.96
2023-05-13T03:31:12.792Z,27.97
2023-05-13T03:33:43.548Z,27.97
2023-05-13T03:36:14.105Z,27.97
2023-05-13T03:38:46.177Z,27.96
2023-05-13T03:41:17.971Z,27.94
2023-05-13T03:43:48.748Z,27.94
2023-05-13T03:46:19.385Z,27.94
2023-05-13T03:48:50.251Z,27.94
2023-05-13T03:51:21.286Z,27.96
2023-05-13T03:53:53.453Z,27.98
2023-05-13T03:56:24.083Z,28.00
2023-05-13T03:58:54.632Z,28.00
2023-05-13T04:01:25.493Z,28.02
2023-05-13T04:03:55.075Z,28.03
2023-05-13T04:06:25.551Z,28.03
2023-05-13T04:08:57.973Z,28.05
2023-05-13T04:11:28.557Z,28.07
2023-05-13T04:13:58.380Z,28.09
2023-05-13T04:16:28.296Z,28.11
2023-05-13T04:18:59.373Z,28.13
2023-05-13T04:21:29.407Z,28.14
2023-05-13T04:24:01.758Z,28.18
2023-05-13T04:26:31.697Z,28.20
2023-05-13T04:29:02.144Z,28.24
2023-05-13T04:31:32.452Z,28.26
2023-05-13T04:34:02.918Z,28.27
2023-05-13T04:36:33.226Z,28.28
2023-05-13T04:39:05.879Z,28.29
2023-05-13T04:41:36.491Z,28.31
2023-05-13T04:44:08.021Z,28.32
2023-05-13T04:46:40.878Z,28.33
2023-05-13T04:49:11.325Z,28.35
2023-05-13T04:51:42.313Z,28.37
2023-05-13T04:54:15.064Z,28.41
2023-05-13T04:56:45.645Z,28.43
2023-05-13T04:59:16.274Z,28.47
2023-05-13T05:01:46.383Z,28.50
2023-05-13T05:04:16.790Z,28.52
2023-05-13T05:06:47.280Z,28.52
2023-05-13T05:09:19.905Z,28.54
2023-05-13T05:11:51.116Z,28.55
2023-05-13T05:14:21.648Z,28.56
2023-05-13T05:16:52.180Z,28.58
2023-05-13T05:19:24.562Z,28.61
2023-05-13T05:21:54.862Z,28.63
2023-05-13T05:24:27.384Z,28.65
2023-05-13T05:26:58.037Z,28.67
2023-05-13T05:29:28.831Z,28.69
2023-05-13T05:31:59.643Z,28.73
2023-05-13T05:34:30.382Z,28.76
2023-05-13T05:37:00.483Z,28.80
2023-05-13T05:39:32.655Z,28.84
2023-05-13T05:42:03.737Z,28.87
2023-05-13T05:44:34.289Z,28.90
2023-05-13T05:47:05.171Z,28.92
2023-05-13T05:49:35.820Z,28.94
2023-05-13T05:52:06.456Z,28.95
2023-05-13T05:54:38.404Z,28.97
2023-05-13T05:57:09.258Z,29.00
2023-05-13T05:59:39.740Z,29.03
2023-05-13T06:02:10.878Z,29.06
2023-05-13T06:04:42.081Z,29.11
2023-05-13T06:07:13.810Z,29.16
2023-05-13T06:09:46.535Z,29.21
2023-05-13T06:12:17.051Z,29.25
2023-05-13T06:14:47.659Z,29.30
2023-05-13T06:17:18.329Z,29.35
2023-05-13T06:19:48.650Z,29.39
2023-05-13T06:22:18.603Z,29.44
2023-05-13T06:24:51.238Z,29.44
2023-05-13T06:27:21.776Z,29.46
2023-05-13T06:29:51.841Z,29.47
2023-05-13T06:32:22.534Z,29.48
2023-05-13T06:34:54.564Z,29.50
2023-05-13T06:37:25.857Z,29.52
2023-05-13T06:39:58.872Z,29.56
2023-05-13T06:42:29.489Z,29.59
2023-05-13T06:45:00.254Z,29.63
2023-05-13T06:47:31.033Z,29.68
2023-05-13T06:50:01.660Z,29.69
2023-05-13T06:52:32.056Z,29.69
2023-05-13T06:55:04.554Z,29.68
2023-05-13T06:57:42.350Z,29.70
2023-05-13T07:00:15.553Z,29.72
2023-05-13T07:02:45.798Z,29.74
2023-05-13T07:05:16.556Z,29.78
2023-05-13T07:07:47.152Z,29.81
2023-05-13T07:10:20.007Z,29.86
2023-05-13T07:12:50.902Z,29.89
2023-05-13T07:15:21.544Z,29.95
2023-05-13T07:17:51.948Z,29.99
2023-05-13T07:20:23.123Z,30.03
2023-05-13T07:22:54.212Z,30.07
2023-05-13T07:25:26.971Z,30.09
2023-05-13T07:27:57.570Z,30.10
2023-05-13T07:30:27.977Z,30.12
2023-05-13T07:32:58.239Z,30.14
2023-05-13T07:35:28.844Z,30.15
2023-05-13T07:37:59.580Z,30.17
2023-05-13T07:40:31.241Z,30.21
2023-05-13T07:43:01.265Z,30.23
2023-05-13T07:45:31.872Z,30.26
2023-05-13T07:48:02.252Z,30.28
2023-05-13T07:50:32.856Z,30.31
2023-05-13T07:53:02.982Z,30.34
2023-05-13T07:55:35.685Z,30.36
2023-05-13T07:58:07.044Z,30.40
2023-05-13T08:00:37.622Z,30.44
2023-05-13T08:03:08.283Z,30.47
2023-05-13T08:05:38.524Z,30.50
2023-05-13T08:08:09.199Z,30.53
2023-05-13T08:10:41.845Z,30.57
2023-05-13T08:13:12.315Z,30.59
2023-05-13T08:15:43.031Z,30.64
2023-05-13T08:18:13.682Z,30.66
2023-05-13T08:20:44.162Z,30.69
2023-05-13T08:23:14.244Z,30.72
2023-05-13T08:25:46.680Z,30.74
2023-05-13T08:28:16.530Z,30.77
2023-05-13T08:30:47.165Z,30.80
2023-05-13T08:33:16.961Z,30.83
2023-05-13T08:35:47.881Z,30.86
2023-05-13T08:38:18.020Z,30.89
2023-05-13T08:40:51.605Z,30.91
2023-05-13T08:43:26.960Z,30.95
2023-05-13T08:46:03.342Z,30.98
2023-05-13T08:48:36.578Z,31.01
2023-05-13T08:51:07.156Z,31.03
2023-05-13T08:53:38.507Z,31.06
2023-05-13T08:56:12.926Z,31.08
2023-05-13T08:58:44.211Z,31.09
2023-05-13T09:01:15.377Z,31.10
2023-05-13T09:04:00.861Z,31.11
2023-05-13T09:06:31.303Z,31.11
2023-05-13T09:09:03.305Z,31.12
2023-05-13T09:11:36.128Z,31.15
2023-05-13T09:14:08.743Z,31.16
2023-05-13T09:16:40.405Z,31.16
2023-05-13T09:19:11.728Z,31.15
2023-05-13T09:21:42.001Z,31.18
2023-05-13T09:24:18.480Z,31.18
2023-05-13T09:26:52.225Z,31.18
2023-05-13T09:29:24.799Z,31.18
2023-05-13T09:31:57.145Z,31.16
2023-05-13T09:34:33.441Z,31.17
2023-05-13T09:37:07.813Z,31.16
2023-05-13T09:39:43.696Z,31.17
2023-05-13T09:42:21.880Z,31.17
2023-05-13T09:44:52.661Z,31.17
2023-05-13T09:47:22.837Z,31.18
2023-05-13T09:49:59.373Z,31.19
2023-05-13T09:52:31.315Z,31.19
2023-05-13T09:55:05.001Z,31.20
2023-05-13T09:57:38.429Z,31.20
2023-05-13T10:00:21.223Z,31.22
2023-05-13T10:03:00.179Z,31.23
2023-05-13T10:05:30.234Z,31.25
2023-05-13T10:08:02.855Z,31.27
2023-05-13T10:10:37.440Z,31.29
2023-05-13T10:13:13.181Z,31.30
2023-05-13T10:15:51.804Z,31.31
2023-05-13T10:18:24.165Z,31.31
2023-05-13T10:20:55.466Z,31.31
2023-05-13T10:23:26.987Z,31.32
2023-05-13T10:26:01.322Z,31.34
2023-05-13T10:28:35.404Z,31.35
2023-05-13T10:31:07.510Z,31.37
2023-05-13T10:33:37.896Z,31.38
2023-05-13T10:36:38.069Z,31.40
2023-05-13T10:39:44.743Z,31.40
2023-05-13T10:42:55.281Z,31.40
2023-05-13T10:45:31.054Z,31.39
2023-05-13T10:48:12.135Z,31.40
2023-05-13T10:50:44.437Z,31.41
2023-05-13T10:53:26.060Z,31.42
2023-05-13T10:55:59.862Z,31.42
2023-05-13T10:58:43.864Z,31.43
2023-05-13T11:01:27.469Z,31.41
2023-05-13T11:04:00.989Z,31.40
2023-05-13T11:06:37.304Z,31.39
2023-05-13T11:09:10.902Z,31.39
2023-05-13T11:11:42.255Z,31.38
2023-05-13T11:14:19.910Z,31.37
2023-05-13T11:17:12.198Z,31.35
2023-05-13T11:19:50.668Z,31.35
2023-05-13T11:22:26.018Z,31.33
2023-05-13T11:25:12.534Z,31.33
2023-05-13T11:27:48.724Z,31.32
2023-05-13T11:30:32.449Z,31.33
2023-05-13T11:33:15.097Z,31.32
2023-05-13T11:36:01.513Z,31.31
2023-05-13T11:38:34.295Z,31.31
2023-05-13T11:41:06.244Z,31.32
2023-05-13T11:43:40.336Z,31.32
2023-05-13T11:46:21.577Z,31.32
2023-05-13T11:48:58.938Z,31.31
2023-05-13T11:51:32.720Z,31.30
2023-05-13T11:54:06.890Z,31.26
2023-05-13T11:56:39.570Z,31.23
2023-05-13T11:59:20.638Z,31.20
2023-05-13T12:02:05.912Z,31.19
2023-05-13T12:04:44.895Z,31.18
2023-05-13T12:07:24.392Z,31.18
2023-05-13T12:10:03.060Z,31.17
2023-05-13T12:12:37.675Z,31.18
2023-05-13T12:15:12.835Z,31.17
2023-05-13T12:17:49.162Z,31.16
2023-05-13T12:20:26.942Z,31.16
2023-05-13T12:23:04.780Z,31.15
2023-05-13T12:25:47.329Z,31.11
2023-05-13T12:28:21.355Z,31.10
2023-05-13T12:30:57.083Z,31.09
2023-05-13T12:33:33.627Z,31.08
2023-05-13T12:36:26.296Z,31.05
2023-05-13T12:39:04.054Z,31.04
2023-05-13T12:41:37.672Z,31.03
2023-05-13T12:44:13.974Z,31.01
2023-05-13T12:46:54.504Z,31.00
2023-05-13T12:49:24.531Z,30.97
2023-05-13T12:51:57.372Z,30.96
2023-05-13T12:54:27.797Z,30.93
2023-05-13T12:56:58.123Z,30.90
2023-05-13T12:59:29.865Z,30.88
2023-05-13T13:02:01.341Z,30.85
2023-05-13T13:04:31.640Z,30.83
2023-05-13T13:07:04.256Z,30.81
2023-05-13T13:09:34.047Z,30.78
2023-05-13T13:12:04.015Z,30.78
2023-05-13T13:14:34.514Z,30.77
2023-05-13T13:17:04.546Z,30.76
2023-05-13T13:19:34.938Z,30.75
2023-05-13T13:22:07.336Z,30.75
2023-05-13T13:24:37.808Z,30.73
2023-05-13T13:27:09.270Z,30.74
2023-05-13T13:29:40.013Z,30.74
2023-05-13T13:32:11.149Z,30.75
2023-05-13T13:34:41.979Z,30.73
2023-05-13T13:37:14.504Z,30.73
2023-05-13T13:39:45.917Z,30.72
2023-05-13T13:42:16.430Z,30.72
2023-05-13T13:44:46.984Z,30.71
2023-05-13T13:47:18.024Z,30.70
2023-05-13T13:49:48.400Z,30.68
2023-05-13T13:52:23.108Z,30.68
2023-05-13T13:54:53.586Z,30.66
2023-05-13T13:57:24.090Z,30.66
2023-05-13T13:59:53.997Z,30.64
2023-05-13T14:02:24.574Z,30.64
2023-05-13T14:04:56.037Z,30.62
2023-05-13T14:07:29.951Z,30.61
2023-05-13T14:10:01.406Z,30.61
2023-05-13T14:12:32.615Z,30.59
2023-05-13T14:15:03.201Z,30.58
2023-05-13T14:17:34.389Z,30.56
2023-05-13T14:20:05.441Z,30.55
2023-05-13T14:22:37.550Z,30.54
2023-05-13T14:25:09.774Z,30.52
2023-05-13T14:27:40.159Z,30.51
2023-05-13T14:30:12.716Z,30.49
2023-05-13T14:32:47.967Z,30.49
2023-05-13T14:35:21.918Z,30.47
2023-05-13T14:37:58.123Z,30.47
2023-05-13T14:40:32.690Z,30.43
2023-05-13T14:43:05.025Z,30.43
2023-05-13T14:45:38.316Z,30.42
2023-05-13T14:48:12.399Z,30.41
2023-05-13T14:50:43.722Z,30.39
2023-05-13T14:53:17.087Z,30.38
2023-05-13T14:55:51.153Z,30.36
2023-05-13T14:58:22.812Z,30.34
2023-05-13T15:00:54.009Z,30.33
2023-05-13T15:03:24.661Z,30.31
2023-05-13T15:05:55.299Z,30.29
2023-05-13T15:08:28.949Z,30.26
2023-05-13T15:10:59.740Z,30.24
2023-05-13T15:13:35.591Z,30.22
2023-05-13T15:16:07.193Z,30.20
2023-05-13T15:18:37.252Z,30.18
2023-05-13T15:21:07.955Z,30.15
2023-05-13T15:23:40.017Z,30.15
2023-05-13T15:26:11.112Z,30.13
2023-05-13T15:28:40.935Z,30.11
2023-05-13T15:31:12.227Z,30.10
2023-05-13T15:33:45.223Z,30.09
2023-05-13T15:36:16.013Z,30.08
2023-05-13T15:38:48.504Z,30.06
2023-05-13T15:41:22.155Z,30.03
2023-05-13T15:43:54.175Z,30.02
2023-05-13T15:46:25.759Z,30.01
2023-05-13T15:48:57.748Z,29.99
2023-05-13T15:51:29.969Z,29.97
2023-05-13T15:54:05.542Z,29.96
2023-05-13T15:56:40.807Z,29.95
2023-05-13T15:59:12.743Z,29.92
2023-05-13T16:01:47.556Z,29.90
2023-05-13T16:04:18.886Z,29.86
2023-05-13T16:06:49.592Z,29.83
2023-05-13T16:09:22.158Z,29.81
2023-05-13T16:11:53.647Z,29.77
2023-05-13T16:14:23.761Z,29.76
2023-05-13T16:16:53.714Z,29.74
2023-05-13T16:19:25.579Z,29.73
2023-05-13T16:21:59.019Z,29.71
2023-05-13T16:24:31.824Z,29.70
2023-05-13T16:27:03.312Z,29.69
2023-05-13T16:29:33.308Z,29.68
2023-05-13T16:32:03.865Z,29.67
2023-05-13T16:34:35.049Z,29.65
2023-05-13T16:37:06.180Z,29.65
2023-05-13T16:39:40.256Z,29.64
2023-05-13T16:42:10.948Z,29.63
2023-05-13T16:44:42.862Z,29.62
2023-05-13T16:47:14.601Z,29.61
2023-05-13T16:49:45.797Z,29.59
2023-05-13T16:52:16.930Z,29.57
2023-05-13T16:54:56.581Z,29.57
2023-05-13T16:57:28.730Z,29.54
2023-05-13T17:00:01.895Z,29.52
2023-05-13T17:02:37.276Z,29.51
2023-05-13T17:05:11.061Z,29.46
2023-05-13T17:07:43.105Z,29.44
2023-05-13T17:10:17.369Z,29.40
2023-05-13T17:12:49.721Z,29.37
2023-05-13T17:15:23.579Z,29.37
2023-05-13T17:17:56.080Z,29.35
2023-05-13T17:20:29.478Z,29.34
2023-05-13T17:23:01.184Z,29.32
2023-05-13T17:26:00.878Z,29.31
2023-05-13T17:28:35.146Z,29.28
2023-05-13T17:31:12.824Z,29.26
2023-05-13T17:33:44.061Z,29.24
2023-05-13T17:36:16.976Z,29.24
2023-05-13T17:38:56.772Z,29.22
2023-05-13T17:41:34.859Z,29.21
2023-05-13T17:44:09.166Z,29.19
2023-05-13T17:46:41.318Z,29.19
2023-05-13T17:49:13.159Z,29.19
2023-05-13T17:51:46.618Z,29.17
2023-05-13T17:54:25.142Z,29.18
2023-05-13T17:57:01.738Z,29.18
2023-05-13T17:59:36.421Z,29.15
2023-05-13T18:02:10.650Z,29.17
2023-05-13T18:04:43.016Z,29.15
2023-05-13T18:07:15.603Z,29.15
2023-05-13T18:09:49.308Z,29.14
2023-05-13T18:12:24.599Z,29.14
2023-05-13T18:14:55.153Z,29.13
2023-05-13T18:17:28.012Z,29.12
2023-05-13T18:20:01.161Z,29.11
2023-05-13T18:22:32.452Z,29.11
2023-05-13T18:25:03.642Z,29.10
2023-05-13T18:27:41.509Z,29.10
2023-05-13T18:30:15.786Z,29.08
2023-05-13T18:32:48.552Z,29.07
2023-05-13T18:35:21.952Z,29.06
2023-05-13T18:37:58.473Z,29.06
2023-05-13T18:40:32.767Z,29.05
2023-05-13T18:43:07.012Z,29.03
2023-05-13T18:45:42.635Z,29.02
2023-05-13T18:48:18.755Z,29.00
2023-05-13T18:50:54.899Z,29.31
2023-05-13T18:53:26.077Z,29.19
2023-05-13T18:55:59.451Z,29.13
2023-05-13T18:58:35.713Z,29.08
2023-05-13T19:01:07.959Z,29.04
2023-05-13T19:03:44.024Z,29.02
2023-05-13T19:06:17.234Z,29.00
2023-05-13T19:08:50.465Z,28.98
2023-05-13T19:11:24.059Z,28.96
2023-05-13T19:14:02.298Z,28.95
2023-05-13T19:16:38.724Z,28.94
2023-05-13T19:19:11.903Z,28.91
2023-05-13T19:21:48.676Z,28.91
2023-05-13T19:24:34.149Z,28.90
2023-05-13T19:27:06.260Z,28.88
2023-05-13T19:29:49.079Z,28.88
2023-05-13T19:32:25.816Z,28.87
2023-05-13T19:35:00.909Z,28.85
2023-05-13T19:37:38.798Z,28.85
2023-05-13T19:40:15.377Z,28.84
2023-05-13T19:42:47.861Z,28.82
2023-05-13T19:45:24.024Z,28.82
2023-05-13T19:47:57.896Z,28.80
2023-05-13T19:50:29.564Z,28.80
2023-05-13T19:53:03.162Z,28.79
2023-05-13T19:55:35.055Z,28.79
2023-05-13T19:58:05.783Z,28.78
2023-05-13T20:00:39.250Z,28.79
2023-05-13T20:03:10.318Z,28.78
2023-05-13T20:05:42.823Z,28.77
2023-05-13T20:08:14.203Z,28.77
2023-05-13T20:10:45.603Z,28.76
2023-05-13T20:13:16.539Z,28.75
2023-05-13T20:15:49.447Z,28.75
2023-05-13T20:18:19.560Z,28.74
2023-05-13T20:20:50.346Z,28.73
2023-05-13T20:23:25.274Z,28.73
2023-05-13T20:25:57.288Z,28.72
2023-05-13T20:28:29.543Z,28.70
2023-05-13T20:31:09.461Z,28.72
2023-05-13T20:33:43.718Z,28.68
2023-05-13T20:36:18.018Z,28.67
2023-05-13T20:38:53.368Z,28.66
2023-05-13T20:41:27.971Z,28.67
2023-05-13T20:44:00.840Z,28.66
2023-05-13T20:46:37.097Z,28.65
2023-05-13T20:49:17.371Z,28.64
2023-05-13T20:51:57.848Z,28.64
2023-05-13T20:54:32.358Z,28.63
2023-05-13T20:57:06.238Z,28.63
2023-05-13T20:59:40.421Z,28.63
2023-05-13T21:02:13.356Z,28.62
2023-05-13T21:04:45.729Z,28.62
2023-05-13T21:07:15.955Z,28.62
2023-05-13T21:09:46.622Z,28.62
2023-05-13T21:12:16.592Z,28.61
2023-05-13T21:14:47.065Z,28.61
2023-05-13T21:17:21.695Z,28.60
2023-05-13T21:19:52.916Z,28.60
2023-05-13T21:22:23.473Z,28.58
2023-05-13T21:24:54.004Z,28.58
2023-05-13T21:27:23.881Z,28.55
2023-05-13T21:29:53.977Z,28.51
2023-05-13T21:32:26.479Z,28.50
2023-05-13T21:34:58.775Z,28.47
2023-05-13T21:37:30.078Z,28.43
2023-05-13T21:40:00.635Z,28.39
2023-05-13T21:42:31.124Z,28.37
2023-05-13T21:45:00.907Z,28.35
2023-05-13T21:47:33.607Z,28.33
2023-05-13T21:50:04.531Z,28.31
2023-05-13T21:52:34.570Z,28.29
2023-05-13T21:55:04.546Z,28.28
2023-05-13T21:57:35.118Z,28.26
2023-05-13T22:00:07.641Z,28.24
2023-05-13T22:02:39.969Z,28.22
2023-05-13T22:05:11.649Z,28.19
2023-05-13T22:07:42.163Z,28.15
2023-05-13T22:10:13.778Z,28.13
2023-05-13T22:12:44.841Z,28.10
2023-05-13T22:15:15.543Z,28.09
2023-05-13T22:17:49.960Z,28.08
2023-05-13T22:20:21.666Z,28.05
2023-05-13T22:22:51.937Z,28.04
2023-05-13T22:25:21.910Z,28.02
2023-05-13T22:27:55.114Z,28.01
2023-05-13T22:30:25.947Z,27.99
2023-05-13T22:32:58.691Z,27.97
2023-05-13T22:35:29.292Z,27.96
2023-05-13T22:37:59.795Z,27.94
2023-05-13T22:40:30.492Z,27.93
2023-05-13T22:43:03.698Z,27.91
2023-05-13T22:45:34.188Z,27.90
2023-05-13T22:48:06.979Z,27.89
2023-05-13T22:50:37.609Z,27.87
2023-05-13T22:53:08.036Z,27.85
2023-05-13T22:55:38.120Z,27.84
2023-05-13T22:58:08.200Z,27.81
2023-05-13T23:00:38.714Z,27.79
2023-05-13T23:03:11.110Z,27.78
2023-05-13T23:05:41.027Z,27.77
2023-05-13T23:08:11.376Z,27.76
2023-05-13T23:10:41.433Z,27.76
2023-05-13T23:13:11.849Z,27.76
2023-05-13T23:15:41.664Z,27.77
2023-05-13T23:18:14.182Z,27.78
2023-05-13T23:20:44.926Z,27.78
2023-05-13T23:23:15.181Z,27.79
2023-05-13T23:25:47.919Z,27.80
2023-05-13T23:28:18.239Z,27.79
2023-05-13T23:30:48.271Z,27.78
2023-05-13T23:33:20.867Z,27.77
2023-05-13T23:35:56.053Z,27.76
2023-05-13T23:38:26.883Z,27.73
2023-05-13T23:40:57.526Z,27.72
2023-05-13T23:43:27.486Z,27.70
2023-05-13T23:45:57.397Z,27.69
2023-05-13T23:48:32.094Z,27.69
2023-05-13T23:51:02.684Z,27.68
2023-05-13T23:53:33.083Z,27.67
2023-05-13T23:56:03.251Z,27.67
2023-05-13T23:58:33.764Z,27.67
